WARNING - Change wsUserSettings.php: $SITE["topfolder"] from : public_html./ to: ./


Webcam zuid Meer informatie Webcam zuid


Webcam noord Meer informatie Webcam noord


Onweer radar Meer informatie blitzortung!


Regen radar Meer informatie rain snow radar


Bezoek onze andere website:

Template documentation
and downloads

Onze andere website


U vindt ons ook hier:

Het Weer Aktueel

UK Metoffice

European Weather Network

WeatherCloud

Weather Underground

Austria Weather Network

AWEKAS

Citizen Weather Observer Program (CWOP)

HAMweather, WeatherForYou, PWS Weather

Wetterpage 24

Roosendaal op internet

VWKWEB

RadioZuidWestFM



Het weer levert geen direct gevaar op.    Er zijn geen waarschuwingen afgegeven.

METAR rapporten vliegvelden

   
EHWO - Bergen op Zoom
Gewijzigd: 06-05-2021 18:31
Motregen, Regen, Bewolking  
Motregen, Regen, Bewolking  
   Wind: Westen 9.3 km/h
Wind: Westen 9.3 km/h
Temperatuur: 7°C
Voelt als: 5°C
Dauwpunt: 4°C
Vochtigheid: 81%
Barometer: 1005 hPa
Bewolking: Bewolking
Zicht: meer dan 10 km
Bewolking: Licht bewolkt 4200 ft,
Grotendeels bewolkt 4900 ft,
Bewolking 5400 ft
EHWO 061631Z AUTO 27005KT 190V310 9999 DZRA FEW042 BKN049 OVC054 07/04 Q1005 BLU
EHWO - Woensdrecht
Gewijzigd: 06-05-2021 18:31
Motregen, Regen, Bewolking  
Motregen, Regen, Bewolking  
   Wind: Westen 9.3 km/h
Wind: Westen 9.3 km/h
Temperatuur: 7°C
Voelt als: 5°C
Dauwpunt: 4°C
Vochtigheid: 81%
Barometer: 1005 hPa
Bewolking: Bewolking
Zicht: meer dan 10 km
Bewolking: Licht bewolkt 4200 ft,
Grotendeels bewolkt 4900 ft,
Bewolking 5400 ft
EHWO 061631Z AUTO 27005KT 190V310 9999 DZRA FEW042 BKN049 OVC054 07/04 Q1005 BLU
EHWO - Steenbergen
Gewijzigd: 06-05-2021 18:31
Motregen, Regen, Bewolking  
Motregen, Regen, Bewolking  
   Wind: Westen 9.3 km/h
Wind: Westen 9.3 km/h
Temperatuur: 7°C
Voelt als: 5°C
Dauwpunt: 4°C
Vochtigheid: 81%
Barometer: 1005 hPa
Bewolking: Bewolking
Zicht: meer dan 10 km
Bewolking: Licht bewolkt 4200 ft,
Grotendeels bewolkt 4900 ft,
Bewolking 5400 ft
EHWO 061631Z AUTO 27005KT 190V310 9999 DZRA FEW042 BKN049 OVC054 07/04 Q1005 BLU
EHWO - Oud-Gastel
Gewijzigd: 06-05-2021 18:31
Motregen, Regen, Bewolking  
Motregen, Regen, Bewolking  
   Wind: Westen 9.3 km/h
Wind: Westen 9.3 km/h
Temperatuur: 7°C
Voelt als: 5°C
Dauwpunt: 4°C
Vochtigheid: 81%
Barometer: 1005 hPa
Bewolking: Bewolking
Zicht: meer dan 10 km
Bewolking: Licht bewolkt 4200 ft,
Grotendeels bewolkt 4900 ft,
Bewolking 5400 ft
EHWO 061631Z AUTO 27005KT 190V310 9999 DZRA FEW042 BKN049 OVC054 07/04 Q1005 BLU
EHWO - Oudenbosch
Gewijzigd: 06-05-2021 18:31
Motregen, Regen, Bewolking  
Motregen, Regen, Bewolking  
   Wind: Westen 9.3 km/h
Wind: Westen 9.3 km/h
Temperatuur: 7°C
Voelt als: 5°C
Dauwpunt: 4°C
Vochtigheid: 81%
Barometer: 1005 hPa
Bewolking: Bewolking
Zicht: meer dan 10 km
Bewolking: Licht bewolkt 4200 ft,
Grotendeels bewolkt 4900 ft,
Bewolking 5400 ft
EHWO 061631Z AUTO 27005KT 190V310 9999 DZRA FEW042 BKN049 OVC054 07/04 Q1005 BLU
EHWO - Rucphen
Gewijzigd: 06-05-2021 18:31
Motregen, Regen, Bewolking  
Motregen, Regen, Bewolking  
   Wind: Westen 9.3 km/h
Wind: Westen 9.3 km/h
Temperatuur: 7°C
Voelt als: 5°C
Dauwpunt: 4°C
Vochtigheid: 81%
Barometer: 1005 hPa
Bewolking: Bewolking
Zicht: meer dan 10 km
Bewolking: Licht bewolkt 4200 ft,
Grotendeels bewolkt 4900 ft,
Bewolking 5400 ft
EHWO 061631Z AUTO 27005KT 190V310 9999 DZRA FEW042 BKN049 OVC054 07/04 Q1005 BLU
EHWO - Bergen op Zoom
Gewijzigd: 06-05-2021 18:31
Motregen, Regen, Bewolking  
Motregen, Regen, Bewolking  
   Wind: Westen 9.3 km/h
Wind: Westen 9.3 km/h
Temperatuur: 7°C
Voelt als: 5°C
Dauwpunt: 4°C
Vochtigheid: 81%
Barometer: 1005 hPa
Bewolking: Bewolking
Zicht: meer dan 10 km
Bewolking: Licht bewolkt 4200 ft,
Grotendeels bewolkt 4900 ft,
Bewolking 5400 ft
EHWO 061631Z AUTO 27005KT 190V310 9999 DZRA FEW042 BKN049 OVC054 07/04 Q1005 BLU
EHWO - Fijnaart
Gewijzigd: 06-05-2021 18:31
Motregen, Regen, Bewolking  
Motregen, Regen, Bewolking  
   Wind: Westen 9.3 km/h
Wind: Westen 9.3 km/h
Temperatuur: 7°C
Voelt als: 5°C
Dauwpunt: 4°C
Vochtigheid: 81%
Barometer: 1005 hPa
Bewolking: Bewolking
Zicht: meer dan 10 km
Bewolking: Licht bewolkt 4200 ft,
Grotendeels bewolkt 4900 ft,
Bewolking 5400 ft
EHWO 061631Z AUTO 27005KT 190V310 9999 DZRA FEW042 BKN049 OVC054 07/04 Q1005 BLU
EHWO - Ossendrecht
Gewijzigd: 06-05-2021 18:31
Motregen, Regen, Bewolking  
Motregen, Regen, Bewolking  
   Wind: Westen 9.3 km/h
Wind: Westen 9.3 km/h
Temperatuur: 7°C
Voelt als: 5°C
Dauwpunt: 4°C
Vochtigheid: 81%
Barometer: 1005 hPa
Bewolking: Bewolking
Zicht: meer dan 10 km
Bewolking: Licht bewolkt 4200 ft,
Grotendeels bewolkt 4900 ft,
Bewolking 5400 ft
EHWO 061631Z AUTO 27005KT 190V310 9999 DZRA FEW042 BKN049 OVC054 07/04 Q1005 BLU

Script ontwikkeld door  Saratoga-weather.org Aangepast voor de template door  Weerstation Leuven

Apparatuur in gebruik:

Weerstation
Davis VP2

Weerprogramma
Meteobridge

Weercomputer
Shuttle

Webleverancier
WeservIT

Davis VP2

Meteobridge

Shuttle

WeservIT